<?xml version="1.0" encoding="UTF-8" standalone="no" ?>
<gpx xmlns="http://www.topografix.com/GPX/1/1" xmlns:xsi="http://www.w3.org/2001/XMLSchema-instance" xsi:schemaLocation="http://www.topografix.com/GPX/1/1 http://www.topografix.com/GPX/1/1/gpx.xsd" version="1.1" creator="VisuGPX - https://www.visugpx.com">
  <metadata>
    <name>nwCQQo0mC5</name>
    <desc><![CDATA[

]]></desc>
  </metadata>
  <trk>
    <name><![CDATA[nwCQQo0mC5_1]]></name>
    <trkseg>
      <trkpt lat="45.37351" lon="5.7854">
        <ele>1275</ele>
        <time>2008-10-25T12:53:27Z</time>
      </trkpt>
      <trkpt lat="45.37345" lon="5.78546">
        <ele>1274</ele>
        <time>2008-10-25T12:53:31Z</time>
      </trkpt>
      <trkpt lat="45.37319" lon="5.78574">
        <ele>1269</ele>
        <time>2008-10-25T12:53:45Z</time>
      </trkpt>
      <trkpt lat="45.37302" lon="5.78595">
        <ele>1262</ele>
        <time>2008-10-25T12:53:54Z</time>
      </trkpt>
      <trkpt lat="45.37296" lon="5.78632">
        <ele>1257</ele>
        <time>2008-10-25T12:54:05Z</time>
      </trkpt>
      <trkpt lat="45.37306" lon="5.78647">
        <ele>1253</ele>
        <time>2008-10-25T12:54:13Z</time>
      </trkpt>
      <trkpt lat="45.37291" lon="5.7866">
        <ele>1252</ele>
        <time>2008-10-25T12:54:23Z</time>
      </trkpt>
      <trkpt lat="45.37281" lon="5.78668">
        <ele>1253</ele>
        <time>2008-10-25T12:54:31Z</time>
      </trkpt>
      <trkpt lat="45.37255" lon="5.78673">
        <ele>1252</ele>
        <time>2008-10-25T12:54:49Z</time>
      </trkpt>
      <trkpt lat="45.37251" lon="5.78677">
        <ele>1251</ele>
        <time>2008-10-25T12:54:57Z</time>
      </trkpt>
      <trkpt lat="45.37251" lon="5.7869">
        <ele>1251</ele>
        <time>2008-10-25T12:55:03Z</time>
      </trkpt>
      <trkpt lat="45.37244" lon="5.78733">
        <ele>1244</ele>
        <time>2008-10-25T12:55:20Z</time>
      </trkpt>
      <trkpt lat="45.37216" lon="5.78771">
        <ele>1242</ele>
        <time>2008-10-25T12:55:38Z</time>
      </trkpt>
      <trkpt lat="45.37195" lon="5.78801">
        <ele>1232</ele>
        <time>2008-10-25T12:55:53Z</time>
      </trkpt>
      <trkpt lat="45.37197" lon="5.78806">
        <ele>1232</ele>
        <time>2008-10-25T12:55:56Z</time>
      </trkpt>
      <trkpt lat="45.37193" lon="5.78819">
        <ele>1230</ele>
        <time>2008-10-25T12:56:11Z</time>
      </trkpt>
      <trkpt lat="45.37182" lon="5.78825">
        <ele>1231</ele>
        <time>2008-10-25T12:56:27Z</time>
      </trkpt>
      <trkpt lat="45.37139" lon="5.78898">
        <ele>1230</ele>
        <time>2008-10-25T12:56:45Z</time>
      </trkpt>
      <trkpt lat="45.37133" lon="5.78915">
        <ele>1229</ele>
        <time>2008-10-25T12:56:53Z</time>
      </trkpt>
      <trkpt lat="45.37141" lon="5.78941">
        <ele>1228</ele>
        <time>2008-10-25T12:57:00Z</time>
      </trkpt>
      <trkpt lat="45.37163" lon="5.78984">
        <ele>1222</ele>
        <time>2008-10-25T12:57:18Z</time>
      </trkpt>
      <trkpt lat="45.37169" lon="5.78995">
        <ele>1217</ele>
        <time>2008-10-25T12:57:35Z</time>
      </trkpt>
      <trkpt lat="45.37186" lon="5.79044">
        <ele>1210</ele>
        <time>2008-10-25T12:57:55Z</time>
      </trkpt>
      <trkpt lat="45.37206" lon="5.79076">
        <ele>1207</ele>
        <time>2008-10-25T12:58:15Z</time>
      </trkpt>
      <trkpt lat="45.37214" lon="5.79087">
        <ele>1201</ele>
        <time>2008-10-25T12:58:32Z</time>
      </trkpt>
      <trkpt lat="45.37223" lon="5.79106">
        <ele>1195</ele>
        <time>2008-10-25T12:58:51Z</time>
      </trkpt>
      <trkpt lat="45.37246" lon="5.79125">
        <ele>1185</ele>
        <time>2008-10-25T12:59:11Z</time>
      </trkpt>
      <trkpt lat="45.37304" lon="5.79162">
        <ele>1176</ele>
        <time>2008-10-25T12:59:35Z</time>
      </trkpt>
      <trkpt lat="45.37356" lon="5.79241">
        <ele>1169</ele>
        <time>2008-10-25T13:00:01Z</time>
      </trkpt>
      <trkpt lat="45.37377" lon="5.79325">
        <ele>1169</ele>
        <time>2008-10-25T13:00:22Z</time>
      </trkpt>
      <trkpt lat="45.37369" lon="5.79349">
        <ele>1168</ele>
        <time>2008-10-25T13:00:36Z</time>
      </trkpt>
      <trkpt lat="45.37366" lon="5.79349">
        <ele>1164</ele>
        <time>2008-10-25T13:00:43Z</time>
      </trkpt>
      <trkpt lat="45.37319" lon="5.79319">
        <ele>1162</ele>
        <time>2008-10-25T13:01:02Z</time>
      </trkpt>
      <trkpt lat="45.37278" lon="5.79323">
        <ele>1154</ele>
        <time>2008-10-25T13:01:17Z</time>
      </trkpt>
      <trkpt lat="45.37272" lon="5.79334">
        <ele>1141</ele>
        <time>2008-10-25T13:01:27Z</time>
      </trkpt>
      <trkpt lat="45.37233" lon="5.79366">
        <ele>1146</ele>
        <time>2008-10-25T13:01:52Z</time>
      </trkpt>
      <trkpt lat="45.37253" lon="5.79364">
        <ele>1135</ele>
        <time>2008-10-25T13:02:17Z</time>
      </trkpt>
      <trkpt lat="45.37225" lon="5.79329">
        <ele>1135</ele>
        <time>2008-10-25T13:02:30Z</time>
      </trkpt>
      <trkpt lat="45.37229" lon="5.79321">
        <ele>1134</ele>
        <time>2008-10-25T13:03:21Z</time>
      </trkpt>
      <trkpt lat="45.37221" lon="5.79327">
        <ele>1137</ele>
        <time>2008-10-25T13:04:09Z</time>
      </trkpt>
      <trkpt lat="45.37223" lon="5.79334">
        <ele>1134</ele>
        <time>2008-10-25T13:04:46Z</time>
      </trkpt>
      <trkpt lat="45.37233" lon="5.79321">
        <ele>1134</ele>
        <time>2008-10-25T13:05:30Z</time>
      </trkpt>
      <trkpt lat="45.37244" lon="5.79316">
        <ele>1142</ele>
        <time>2008-10-25T13:07:07Z</time>
      </trkpt>
      <trkpt lat="45.37238" lon="5.79312">
        <ele>1142</ele>
        <time>2008-10-25T13:07:18Z</time>
      </trkpt>
      <trkpt lat="45.37193" lon="5.79286">
        <ele>1142</ele>
        <time>2008-10-25T13:07:38Z</time>
      </trkpt>
      <trkpt lat="45.37184" lon="5.7928">
        <ele>1142</ele>
        <time>2008-10-25T13:07:42Z</time>
      </trkpt>
      <trkpt lat="45.37135" lon="5.79274">
        <ele>1142</ele>
        <time>2008-10-25T13:07:51Z</time>
      </trkpt>
    </trkseg>
  </trk>
</gpx>